Time;durP1;ratioP1;P1;durP2;ratioP2;P2;SDS_P1;SDS_P2;PMS_P1;PMS_P2;Temp;Humidity;BMP_temperature;BMP_pressure;BME280_temperature;BME280_humidity;BME280_pressure;Samples;Min_cycle;Max_cycle;Signal;HPM_P1;HPM_P2
2023/04/13 00:01:31;;;;;;;4.65;1.50;;;;;;;5.30;100.00;99417.28;5094766;28;20020;-75
2023/04/13 00:04:01;;;;;;;2.40;1.05;;;;;;;5.28;100.00;99416.56;5094845;28;20028;-75
2023/04/13 00:06:27;;;;;;;3.67;1.20;;;;;;;5.15;100.00;99390.94;5094690;28;20024;-75
2023/04/13 00:08:54;;;;;;;3.15;1.20;;;;;;;5.19;100.00;99398.31;5094556;28;20024;-75
2023/04/13 00:11:19;;;;;;;3.70;1.30;;;;;;;5.28;100.00;99414.81;5094603;28;20024;-75
2023/04/13 00:13:46;;;;;;;3.88;1.70;;;;;;;5.00;100.00;99367.13;5094677;28;20024;-74
2023/04/13 00:16:14;;;;;;;4.15;1.35;;;;;;;5.25;100.00;99406.53;5094359;28;20376;-75
2023/04/13 00:18:39;;;;;;;3.88;1.25;;;;;;;5.30;100.00;99407.03;5094287;28;20032;-74
2023/04/13 00:21:05;;;;;;;4.97;1.42;;;;;;;5.12;100.00;99378.34;5094230;28;20404;-75
2023/04/13 00:29:55;;;;;;;6.63;1.98;;;;;;;5.13;100.00;99350.09;5219589;22;20053;-81
2023/04/13 00:32:21;;;;;;;2.88;1.33;;;;;;;5.50;100.00;99401.44;5034905;28;20021;-81
2023/04/13 00:34:46;;;;;;;4.90;1.35;;;;;;;5.50;100.00;99404.00;5034415;28;20025;-81
2023/04/13 00:37:13;;;;;;;4.63;1.85;;;;;;;5.49;100.00;99404.94;5034011;28;20076;-80
2023/04/13 00:39:38;;;;;;;5.05;1.95;;;;;;;5.31;100.00;99373.69;5033956;28;20482;-80
2023/04/13 00:42:06;;;;;;;5.07;1.67;;;;;;;5.12;100.00;99350.19;5033700;28;20043;-81
2023/04/13 00:44:32;;;;;;;6.15;1.50;;;;;;;5.20;100.00;99370.97;5033805;28;20034;-80
2023/04/13 00:46:57;;;;;;;6.13;1.77;;;;;;;5.41;100.00;99402.91;4999425;28;20040;-80
2023/04/13 00:49:22;;;;;;;3.40;1.35;;;;;;;5.40;100.00;99398.66;5031613;28;20045;-83
2023/04/13 00:51:48;;;;;;;4.13;1.42;;;;;;;5.41;100.00;99399.53;5033696;28;20028;-84
2023/04/13 00:54:15;;;;;;;5.63;1.63;;;;;;;5.07;100.00;99340.25;5033769;28;20029;-85
2023/04/13 00:56:42;;;;;;;5.03;1.30;;;;;;;5.41;100.00;99405.47;5045536;28;20086;-84
2023/04/13 00:59:11;;;;;;;3.67;1.30;;;;;;;5.43;100.00;99398.50;5053476;28;20021;-84
2023/04/13 01:01:45;;;;;;;7.95;1.50;;;;;;;5.26;100.00;99368.03;5035451;28;20033;-85
2023/04/13 01:04:17;;;;;;;4.72;1.38;;;;;;;5.48;100.00;99393.06;5015804;28;20034;-85
2023/04/13 01:06:49;;;;;;;5.63;1.45;;;;;;;5.28;100.00;99355.94;5031745;28;20037;-84
2023/04/13 01:09:15;;;;;;;;;;;;;;;5.53;100.00;99395.34;5033903;28;20469;-85
2023/04/13 01:11:55;;;;;;;5.28;1.52;;;;;;;5.58;100.00;99398.41;5033296;28;19967;-86
2023/04/13 01:14:29;;;;;;;3.85;1.30;;;;;;;5.61;100.00;99387.97;5033373;28;20137;-85
2023/04/13 01:17:01;;;;;;;6.40;1.60;;;;;;;5.63;100.00;99393.81;5033270;28;20049;-84
2023/04/13 01:20:00;;;;;;;6.28;1.52;;;;;;;5.65;100.00;99394.53;5033401;28;20385;-84
2023/04/13 01:22:32;;;;;;;4.55;1.40;;;;;;;5.66;100.00;99398.72;5012687;28;20084;-83
2023/04/13 01:25:13;;;;;;;9.30;1.60;;;;;;;5.34;100.00;99340.22;5015325;28;20490;-85
2023/04/13 01:27:41;;;;;;;4.20;1.20;;;;;;;5.65;100.00;99390.22;5033148;28;20025;-84
2023/04/13 01:30:09;;;;;;;4.90;1.48;;;;;;;5.55;100.00;99367.88;5032914;28;20315;-85
2023/04/13 01:32:36;;;;;;;6.95;1.50;;;;;;;5.67;100.00;99400.38;5032837;28;20446;-83
2023/04/13 01:35:02;;;;;;;5.95;1.80;;;;;;;5.67;100.00;99392.69;5032951;28;20029;-85
2023/04/13 01:37:28;;;;;;;6.93;1.77;;;;;;;5.67;100.00;99397.81;5033129;28;20026;-83
2023/04/13 01:39:54;;;;;;;7.43;1.55;;;;;;;5.66;100.00;99411.53;5032881;28;20077;-84
2023/04/13 01:42:19;;;;;;;5.43;1.50;;;;;;;5.53;100.00;99396.16;5032721;28;20389;-84
2023/04/13 01:44:44;;;;;;;5.72;1.65;;;;;;;5.62;100.00;99418.59;5032901;28;20466;-81
2023/04/13 01:47:14;;;;;;;5.70;1.80;;;;;;;5.47;100.00;99411.91;5032457;28;20079;-82
2023/04/13 02:02:44;;;;;;;6.70;1.98;;;;;;;5.46;100.00;99448.66;5168632;22;20505;-78
2023/04/13 02:05:10;;;;;;;8.50;1.77;;;;;;;5.15;100.00;99413.97;5052067;28;20041;-79
2023/04/13 02:07:40;;;;;;;7.13;2.20;;;;;;;5.46;100.00;99467.41;5052344;28;20039;-78
2023/04/13 02:10:06;;;;;;;8.35;2.05;;;;;;;5.33;100.00;99438.41;5052498;28;20037;-78
2023/04/13 02:12:32;;;;;;;5.18;1.67;;;;;;;5.38;100.00;99461.94;5052396;28;20365;-78
2023/04/13 02:14:59;;;;;;;9.05;1.80;;;;;;;5.35;100.00;99453.66;5052218;28;20043;-79
2023/04/13 02:17:26;;;;;;;7.13;1.83;;;;;;;5.45;100.00;99470.06;5052254;28;20055;-78
2023/04/13 02:19:51;;;;;;;7.07;2.28;;;;;;;5.45;100.00;99482.88;5052236;28;20068;-78
2023/04/13 02:22:17;;;;;;;7.93;1.80;;;;;;;5.47;100.00;99484.41;5052018;28;20060;-78
2023/04/13 02:24:44;;;;;;;6.90;2.05;;;;;;;5.32;100.00;99462.34;5050970;28;20032;-80
2023/04/13 02:27:09;;;;;;;6.35;2.40;;;;;;;5.50;100.00;99492.81;5052363;28;20489;-79
2023/04/13 02:29:34;;;;;;;9.95;2.50;;;;;;;5.51;100.00;99491.91;5052296;28;20065;-78
2023/04/13 02:32:00;;;;;;;6.47;2.10;;;;;;;5.42;100.00;99483.91;5051995;28;20025;-80
2023/04/13 02:34:26;;;;;;;7.78;2.35;;;;;;;5.55;100.00;99513.84;5051856;28;20102;-81
2023/04/13 02:36:52;;;;;;;8.82;2.25;;;;;;;5.55;100.00;99526.63;5050237;28;20044;-78
2023/04/13 02:39:18;;;;;;;14.27;2.33;;;;;;;5.58;100.00;99536.69;5051970;28;20022;-77
2023/04/13 02:41:43;;;;;;;9.40;3.08;;;;;;;5.58;100.00;99529.00;5067517;28;20029;-77
2023/04/13 02:44:10;;;;;;;8.57;2.78;;;;;;;5.58;100.00;99536.69;5051901;28;20047;-77
2023/04/13 02:46:35;;;;;;;9.38;2.70;;;;;;;5.56;100.00;99543.66;5052199;28;20028;-77
2023/04/13 02:49:01;;;;;;;8.23;3.30;;;;;;;5.41;100.00;99512.97;5051701;28;20032;-78
2023/04/13 02:51:26;;;;;;;6.93;2.85;;;;;;;5.51;100.00;99543.13;5052048;28;20051;-78
2023/04/13 02:53:52;;;;;;;4.20;2.53;;;;;;;5.48;100.00;99539.00;5050873;28;20124;-78
2023/04/13 02:56:18;;;;;;;5.45;2.80;;;;;;;5.43;100.00;99546.97;5052171;28;20037;-80
2023/04/13 02:58:43;;;;;;;6.45;2.80;;;;;;;5.27;100.00;99522.41;5051921;28;20084;-79
2023/04/13 03:01:09;;;;;;;7.35;3.20;;;;;;;5.26;100.00;99525.88;5051905;28;20444;-80
2023/04/13 03:03:34;;;;;;;7.53;2.88;;;;;;;5.37;100.00;99551.66;5051668;28;20041;-81
2023/04/13 03:06:00;;;;;;;9.07;2.75;;;;;;;5.18;100.00;99523.81;5052825;28;20036;-78
2023/04/13 03:08:26;;;;;;;7.40;2.80;;;;;;;5.37;100.00;99556.75;5055401;28;20024;-79
2023/04/13 03:10:53;;;;;;;8.10;2.97;;;;;;;5.32;100.00;99548.56;5055516;28;20025;-79
2023/04/13 03:13:18;;;;;;;7.80;2.97;;;;;;;5.35;100.00;99564.53;5055591;28;20017;-80
2023/04/13 03:15:44;;;;;;;5.72;2.78;;;;;;;5.31;100.00;99568.22;5055588;28;20094;-79
2023/04/13 03:18:09;;;;;;;7.07;3.05;;;;;;;5.33;100.00;99578.34;5055266;28;20113;-79
2023/04/13 03:20:34;;;;;;;8.43;3.00;;;;;;;5.35;100.00;99587.59;5053772;28;20068;-79
2023/04/13 03:23:00;;;;;;;5.75;2.97;;;;;;;5.28;100.00;99563.25;5055258;28;20021;-79
2023/04/13 03:25:25;;;;;;;8.40;3.20;;;;;;;5.37;100.00;99587.47;5055040;28;20048;-79
2023/04/13 03:27:51;;;;;;;9.68;3.33;;;;;;;5.27;100.00;99576.97;5055197;28;20063;-79
2023/04/13 03:30:17;;;;;;;7.22;3.22;;;;;;;5.40;100.00;99592.41;5053823;28;20025;-78
2023/04/13 03:32:42;;;;;;;6.75;3.25;;;;;;;5.38;100.00;99600.19;5055117;28;20021;-80
2023/04/13 03:35:08;;;;;;;8.80;3.10;;;;;;;5.36;100.00;99612.25;5055082;28;20185;-79
2023/04/13 03:37:39;;;;;;;6.15;3.25;;;;;;;5.14;100.00;99583.78;5070567;28;20048;-79
2023/04/13 03:40:10;;;;;;;6.97;2.92;;;;;;;4.92;100.00;99561.22;5054898;28;20508;-79
2023/04/13 03:42:36;;;;;;;6.75;3.30;;;;;;;5.17;100.00;99611.72;5055176;28;20035;-79
2023/04/13 03:45:02;;;;;;;7.88;4.22;;;;;;;5.01;100.00;99603.31;5053214;28;20033;-79
2023/04/13 03:47:27;;;;;;;12.82;4.05;;;;;;;5.00;100.00;99619.56;5054806;28;20025;-80
2023/04/13 03:49:53;;;;;;;7.47;4.25;;;;;;;4.86;100.00;99618.66;5054652;28;20025;-79
2023/04/13 03:52:18;;;;;;;10.68;5.05;;;;;;;4.42;100.00;99554.75;5054798;28;20029;-78
2023/04/13 03:54:43;;;;;;;9.73;5.47;;;;;;;4.80;100.00;99628.41;5054374;28;20147;-79
2023/04/13 03:57:09;;;;;;;10.27;5.70;;;;;;;4.72;100.00;99618.66;5054835;28;20028;-78
2023/04/13 03:59:34;;;;;;;9.10;5.68;;;;;;;4.70;100.00;99623.00;5053305;28;20033;-80
2023/04/13 04:02:01;;;;;;;11.75;6.63;;;;;;;4.80;100.00;99641.22;5054553;28;20056;-79
2023/04/13 04:04:27;;;;;;;13.10;6.28;;;;;;;4.57;100.00;99609.31;5054344;28;20067;-80
2023/04/13 04:06:52;;;;;;;14.10;7.32;;;;;;;4.61;100.00;99611.59;5054487;28;20033;-80
2023/04/13 04:09:17;;;;;;;15.13;7.20;;;;;;;4.87;100.00;99651.00;5054185;28;20055;-80
2023/04/13 04:11:43;;;;;;;16.88;7.07;;;;;;;4.87;100.00;99651.00;5054589;28;20036;-79
2023/04/13 04:14:08;;;;;;;14.35;6.97;;;;;;;4.60;100.00;99609.13;5069176;28;20033;-80
2023/04/13 04:16:34;;;;;;;16.23;6.70;;;;;;;4.82;100.00;99662.44;5054190;28;20079;-79
2023/04/13 04:18:59;;;;;;;13.80;6.70;;;;;;;4.78;100.00;99669.44;5054158;28;20485;-79
2023/04/13 04:21:33;;;;;;;13.68;7.43;;;;;;;4.78;100.00;99683.97;5054094;28;20079;-79
2023/04/13 04:24:02;;;;;;;11.23;6.75;;;;;;;4.68;100.00;99654.72;5054163;28;20021;-80
2023/04/13 04:26:28;;;;;;;14.55;7.15;;;;;;;4.77;100.00;99657.56;5053880;28;20538;-79
2023/04/13 04:29:00;;;;;;;15.43;7.57;;;;;;;4.64;100.00;99633.63;5054000;28;20102;-79
2023/04/13 04:31:30;;;;;;;13.45;7.57;;;;;;;4.82;100.00;99657.31;5054122;28;20029;-81
2023/04/13 04:33:56;;;;;;;13.95;7.88;;;;;;;4.77;100.00;99662.69;5053932;28;20024;-82
2023/04/13 04:36:22;;;;;;;14.13;7.20;;;;;;;4.89;100.00;99687.53;5053908;28;20021;-77
2023/04/13 04:38:48;;;;;;;16.27;7.78;;;;;;;4.79;100.00;99678.75;5053822;28;20036;-77
2023/04/13 04:41:19;;;;;;;14.27;6.97;;;;;;;4.86;100.00;99703.06;5053803;28;20033;-78
2023/04/13 04:43:45;;;;;;;11.88;6.90;;;;;;;4.83;100.00;99700.69;5054044;28;20445;-78
2023/04/13 04:46:14;;;;;;;12.73;6.53;;;;;;;4.80;100.00;99711.09;5053866;28;20055;-77
2023/04/13 04:48:40;;;;;;;13.70;6.70;;;;;;;4.78;100.00;99714.66;5053521;28;20033;-78
2023/04/13 04:51:07;;;;;;;13.50;6.18;;;;;;;4.78;100.00;99723.16;5052441;28;20071;-78
2023/04/13 04:53:33;;;;;;;14.13;6.28;;;;;;;4.61;100.00;99700.25;5053456;28;20422;-77
2023/04/13 04:55:58;;;;;;;14.23;6.78;;;;;;;4.40;100.00;99669.06;5053823;28;20055;-79
2023/04/13 04:58:24;;;;;;;12.02;6.50;;;;;;;4.75;100.00;99720.78;5053667;28;20488;-78
2023/04/13 05:00:51;;;;;;;14.68;6.50;;;;;;;4.80;100.00;99721.31;5053363;28;20108;-78
2023/04/13 05:03:16;;;;;;;13.77;6.18;;;;;;;4.81;100.00;99729.81;5053154;28;20029;-77
2023/04/13 05:05:42;;;;;;;12.80;6.22;;;;;;;4.31;100.00;99644.00;5053180;28;20108;-79
2023/04/13 05:08:08;;;;;;;10.52;5.65;;;;;;;4.68;100.00;99698.19;5053369;28;20025;-77
2023/04/13 05:10:33;;;;;;;15.65;6.78;;;;;;;4.98;100.00;99742.47;5053048;28;20037;-77
2023/04/13 05:12:58;;;;;;;14.65;6.90;;;;;;;5.14;100.00;99735.56;5053116;28;20033;-79
2023/04/13 05:15:24;;;;;;;11.30;6.00;;;;;;;5.28;100.00;99733.94;5053015;28;20165;-78
2023/04/13 05:17:49;;;;;;;15.55;7.07;;;;;;;5.17;100.00;99696.19;5052921;28;20095;-78
2023/04/13 05:20:16;;;;;;;13.43;6.80;;;;;;;5.45;100.00;99736.34;5052922;28;20033;-78
2023/04/13 05:22:41;;;;;;;12.70;6.63;;;;;;;5.48;100.00;99742.09;5053043;28;20367;-78
2023/04/13 05:25:08;;;;;;;12.95;7.18;;;;;;;5.56;100.00;99743.38;5052864;28;20419;-79
2023/04/13 05:27:33;;;;;;;14.98;7.78;;;;;;;5.40;100.00;99716.09;5051095;28;20037;-83
2023/04/13 05:29:59;;;;;;;12.32;7.03;;;;;;;5.60;100.00;99753.34;5052047;28;20033;-83
2023/04/13 05:32:25;;;;;;;15.27;7.18;;;;;;;5.49;100.00;99732.66;5067708;28;20106;-81
2023/04/13 05:34:50;;;;;;;11.95;6.72;;;;;;;5.68;100.00;99755.44;5052742;28;20025;-82
2023/04/13 05:37:16;;;;;;;10.35;6.45;;;;;;;5.69;100.00;99749.41;5052586;28;20031;-83
2023/04/13 05:39:41;;;;;;;11.05;6.40;;;;;;;5.70;100.00;99739.09;5052625;28;20096;-81
2023/04/13 05:42:07;;;;;;;12.30;6.35;;;;;;;5.81;100.00;99735.06;5052770;28;20112;-83
2023/04/13 05:44:32;;;;;;;12.52;6.00;;;;;;;5.58;100.00;99691.16;5052664;28;20029;-83
2023/04/13 05:46:57;;;;;;;11.25;5.50;;;;;;;5.88;100.00;99724.31;5052489;28;20032;-84
2023/04/13 05:49:23;;;;;;;13.40;5.50;;;;;;;6.03;100.00;99741.38;5052355;28;20029;-83
2023/04/13 05:51:48;;;;;;;9.80;5.03;;;;;;;6.30;100.00;99779.84;5052461;28;20032;-82
2023/04/13 05:54:13;;;;;;;9.35;4.88;;;;;;;6.36;100.00;99778.63;5052635;28;20024;-85
2023/04/13 05:56:39;;;;;;;9.82;5.10;;;;;;;6.27;100.00;99740.75;5052453;28;20074;-82
2023/04/13 05:59:05;;;;;;;10.10;4.35;;;;;;;6.71;100.00;99747.38;5052779;28;20083;-80
2023/04/13 06:01:31;;;;;;;8.15;3.90;;;;;;;6.97;100.00;99779.88;5052392;28;20401;-81
2023/04/13 06:03:57;;;;;;;8.65;3.55;;;;;;;6.58;100.00;99766.09;5052384;28;20140;-82
2023/04/13 06:06:22;;;;;;;8.38;3.78;;;;;;;6.41;100.00;99774.06;5052354;28;20029;-80
2023/04/13 06:08:48;;;;;;;7.72;3.67;;;;;;;6.20;100.00;99780.53;5050511;28;20041;-81
2023/04/13 06:11:14;;;;;;;7.82;3.38;;;;;;;6.33;100.00;99812.16;5052248;28;20033;-82
2023/04/13 06:13:40;;;;;;;9.77;3.97;;;;;;;6.20;100.00;99806.16;5052329;28;20052;-83
2023/04/13 06:16:07;;;;;;;8.80;3.58;;;;;;;5.21;100.00;99651.59;5052357;28;20035;-83
2023/04/13 06:18:32;;;;;;;10.48;3.80;;;;;;;6.27;100.00;99828.72;5052339;28;20070;-82
2023/04/13 06:20:58;;;;;;;7.03;3.65;;;;;;;6.22;100.00;99817.13;5052031;28;20489;-82
2023/04/13 06:23:24;;;;;;;7.85;3.53;;;;;;;6.38;100.00;99838.34;5052065;28;20037;-80
2023/04/13 06:25:50;;;;;;;9.27;4.03;;;;;;;6.44;100.00;99842.28;5052405;28;20111;-79
2023/04/13 06:28:15;;;;;;;8.68;3.85;;;;;;;6.45;100.00;99837.03;5051891;28;20029;-81
2023/04/13 06:30:41;;;;;;;8.63;3.70;;;;;;;6.59;100.00;99849.03;5052341;28;20116;-80
2023/04/13 06:33:06;;;;;;;7.13;4.03;;;;;;;6.43;100.00;99823.50;5051026;28;20366;-79
2023/04/13 06:35:35;;;;;;;7.20;4.70;;;;;;;6.56;100.00;99859.47;5049968;28;20044;-80
2023/04/13 06:38:01;;;;;;;8.45;3.97;;;;;;;6.26;100.00;99821.97;5052417;28;20025;-78
2023/04/13 06:40:31;;;;;;;8.25;3.88;;;;;;;6.31;100.00;99850.72;5054223;28;20029;-79
2023/04/13 06:42:56;;;;;;;7.95;4.13;;;;;;;6.26;100.00;99855.28;5055827;28;20032;-77
2023/04/13 06:45:22;;;;;;;8.18;4.38;;;;;;;6.29;100.00;99861.97;5056110;28;20024;-80
2023/04/13 06:47:47;;;;;;;10.27;4.78;;;;;;;6.14;100.00;99847.53;5055890;28;20063;-81
2023/04/13 06:50:21;;;;;;;11.13;5.25;;;;;;;6.31;100.00;99878.94;5055789;28;20059;-80
2023/04/13 06:52:47;;;;;;;9.40;4.65;;;;;;;6.34;100.00;99880.47;5055913;28;20029;-79
2023/04/13 06:55:13;;;;;;;8.40;4.57;;;;;;;6.27;100.00;99861.25;5055839;28;20021;-84
2023/04/13 06:57:39;;;;;;;13.90;5.50;;;;;;;6.00;100.00;99821.00;5055469;28;20103;-83
2023/04/13 07:00:09;;;;;;;8.35;4.65;;;;;;;6.43;100.00;99882.47;5055900;28;20469;-83
2023/04/13 07:02:35;;;;;;;10.75;4.68;;;;;;;6.38;100.00;99870.84;5055671;28;20032;-82
2023/04/13 07:05:01;;;;;;;11.35;4.32;;;;;;;6.56;100.00;99896.19;5055459;28;20041;-82
2023/04/13 07:07:26;;;;;;;9.35;4.32;;;;;;;6.45;100.00;99867.81;5055619;28;20029;-82
2023/04/13 07:09:52;;;;;;;13.77;4.10;;;;;;;6.64;100.00;99890.59;5055322;28;20025;-81
2023/04/13 07:12:17;;;;;;;10.05;3.65;;;;;;;6.42;100.00;99872.31;5070079;28;20060;-82
2023/04/13 07:14:45;;;;;;;10.50;4.07;;;;;;;6.74;100.00;99909.63;5055427;28;20029;-78
2023/04/13 07:17:11;;;;;;;10.70;4.22;;;;;;;6.80;100.00;99913.59;5055456;28;20104;-80
2023/04/13 07:19:37;;;;;;;10.70;4.07;;;;;;;6.77;100.00;99899.19;5055628;28;20525;-79
2023/04/13 07:22:03;;;;;;;9.88;3.42;;;;;;;7.00;100.00;99931.13;5055353;28;20029;-81
2023/04/13 07:24:29;;;;;;;11.77;3.95;;;;;;;7.01;100.00;99919.94;5055178;28;20075;-82
2023/04/13 07:26:57;;;;;;;13.13;4.10;;;;;;;7.14;100.00;99931.06;5055078;28;20043;-82
2023/04/13 07:29:24;;;;;;;9.68;3.83;;;;;;;7.26;100.00;99932.03;5055202;28;20115;-83
2023/04/13 07:31:50;;;;;;;8.02;3.58;;;;;;;7.42;100.00;99937.84;5053718;28;20036;-82
2023/04/13 07:34:16;;;;;;;10.95;3.50;;;;;;;7.38;100.00;99912.47;5055380;28;20116;-83
2023/04/13 07:36:42;;;;;;;8.77;3.28;;;;;;;7.71;100.00;99942.88;5054916;28;20051;-82
2023/04/13 07:39:08;;;;;;;10.57;3.17;;;;;;;7.81;100.00;99949.03;5055039;28;20025;-84
2023/04/13 07:41:34;;;;;;;10.93;3.42;;;;;;;7.67;100.00;99928.56;5070325;28;20120;-85
2023/04/13 07:44:00;;;;;;;9.85;4.03;;;;;;;7.85;100.00;99957.38;5055167;28;20427;-81
2023/04/13 07:46:26;;;;;;;12.10;3.85;;;;;;;7.78;100.00;99949.25;5054988;28;20017;-81
2023/04/13 07:48:55;;;;;;;9.10;3.63;;;;;;;7.95;100.00;99973.84;5053074;28;20037;-77
2023/04/13 07:51:21;;;;;;;11.40;3.83;;;;;;;8.07;100.00;99975.63;5054071;28;20119;-81
2023/04/13 07:53:47;;;;;;;11.77;3.50;;;;;;;8.12;100.00;99978.69;5054954;28;20029;-82
2023/04/13 07:56:13;;;;;;;12.88;3.15;;;;;;;7.84;100.00;99948.84;5054484;28;20028;-81
2023/04/13 07:58:38;;;;;;;11.70;3.83;;;;;;;8.03;100.00;99990.41;5054653;28;20035;-83
2023/04/13 08:01:04;;;;;;;13.02;4.13;;;;;;;8.06;100.00;99994.53;5053340;28;20474;-81
2023/04/13 08:03:30;;;;;;;9.43;3.97;;;;;;;8.07;100.00;99991.06;5054128;28;20172;-74
2023/04/13 08:05:56;;;;;;;10.30;3.85;;;;;;;8.02;100.00;99962.22;5068778;28;20160;-79
2023/04/13 08:08:21;;;;;;;15.10;3.60;;;;;;;8.31;99.39;99998.88;5054435;28;20095;-78
2023/04/13 08:10:46;;;;;;;12.82;2.80;;;;;;;8.20;97.94;99976.44;5054470;28;20102;-81
2023/04/13 08:13:13;;;;;;;15.25;3.92;;;;;;;8.53;99.69;100008.56;5054357;28;20114;-76
2023/04/13 08:15:38;;;;;;;10.30;3.30;;;;;;;8.82;99.32;100015.13;5054455;28;20458;-78
2023/04/13 08:18:04;;;;;;;11.73;3.05;;;;;;;8.97;96.63;100018.44;5054501;28;20028;-76
2023/04/13 08:20:29;;;;;;;11.13;2.50;;;;;;;8.99;95.04;100019.13;5053858;28;20033;-74
2023/04/13 08:22:54;;;;;;;12.40;2.97;;;;;;;8.89;93.85;100021.53;5054162;28;20048;-76
2023/04/13 08:25:20;;;;;;;10.63;3.20;;;;;;;8.79;94.11;100030.81;5054047;28;20064;-77
2023/04/13 08:27:45;;;;;;;11.65;2.63;;;;;;;8.70;92.54;100022.88;5069563;28;20083;-77
2023/04/13 08:30:11;;;;;;;14.10;2.72;;;;;;;8.54;92.99;100011.03;5054292;28;20032;-75
2023/04/13 08:32:36;;;;;;;12.23;2.65;;;;;;;8.59;93.27;100037.31;5054358;28;20021;-74
2023/04/13 08:35:06;;;;;;;12.90;2.90;;;;;;;8.49;92.35;100020.84;5053850;28;20029;-76
2023/04/13 08:37:32;;;;;;;9.20;2.60;;;;;;;8.64;93.11;100055.00;5069528;28;20124;-75
2023/04/13 08:39:59;;;;;;;13.38;2.70;;;;;;;8.74;92.26;100053.44;5053833;28;20021;-76
2023/04/13 08:42:26;;;;;;;13.65;3.63;;;;;;;8.87;92.14;100063.75;5053785;28;20090;-73
2023/04/13 08:44:59;;;;;;;11.85;2.45;;;;;;;8.97;90.90;100066.53;5053749;28;20526;-75
2023/04/13 08:47:26;;;;;;;15.43;3.10;;;;;;;8.99;90.31;100038.91;5054004;28;20418;-76
2023/04/13 08:50:01;;;;;;;13.27;3.10;;;;;;;9.41;90.57;100074.56;5053497;28;20469;-78
2023/04/13 08:52:28;;;;;;;15.93;3.20;;;;;;;9.54;88.00;100079.69;5053601;28;20100;-78
2023/04/13 08:54:54;;;;;;;12.10;2.85;;;;;;;9.75;88.96;100080.75;5053699;28;20363;-75
2023/04/13 08:57:21;;;;;;;14.50;2.80;;;;;;;9.99;87.30;100079.91;5053510;28;20469;-75
2023/04/13 08:59:49;;;;;;;12.45;2.88;;;;;;;10.24;84.90;100079.00;5053475;28;20036;-76
2023/04/13 09:02:18;;;;;;;11.80;3.63;;;;;;;10.35;83.20;100081.59;5053527;28;20036;-73
2023/04/13 09:04:49;;;;;;;13.07;3.30;;;;;;;10.37;82.41;100071.16;5052912;28;20505;-74
2023/04/13 09:07:25;;;;;;;11.55;2.58;;;;;;;10.49;79.90;100089.13;5052595;28;20100;-74
2023/04/13 09:09:59;;;;;;;13.15;3.28;;;;;;;10.36;79.91;100095.31;5068008;28;20399;-72
2023/04/13 09:12:27;;;;;;;12.18;2.63;;;;;;;10.53;82.36;100090.56;5052443;28;20017;-73
2023/04/13 09:14:52;;;;;;;10.70;2.17;;;;;;;10.84;80.82;100112.31;5052408;28;20028;-74
2023/04/13 09:17:24;;;;;;;9.68;2.45;;;;;;;10.83;80.27;100084.84;5052322;28;20025;-73
2023/04/13 09:19:49;;;;;;;12.63;2.20;;;;;;;10.98;79.08;100111.28;5052353;28;20017;-73
2023/04/13 09:22:15;;;;;;;8.50;2.40;;;;;;;10.65;78.57;100113.81;5052086;28;20036;-73
2023/04/13 09:24:40;;;;;;;11.75;3.03;;;;;;;10.53;78.60;100118.16;5052094;28;20021;-73
2023/04/13 09:27:25;;;;;;;11.98;2.55;;;;;;;10.62;81.10;100126.03;5052286;28;20029;-74
2023/04/13 09:29:52;;;;;;;9.10;2.78;;;;;;;10.29;79.27;100110.44;5052101;28;20025;-74
2023/04/13 09:32:22;;;;;;;11.27;2.60;;;;;;;10.22;79.17;100138.44;5052160;28;20055;-74
2023/04/13 09:35:04;;;;;;;11.93;2.55;;;;;;;9.93;79.27;100116.44;5051965;28;20469;-74
2023/04/13 09:37:31;;;;;;;12.80;2.53;;;;;;;10.08;79.80;100151.47;5051838;28;20075;-76
2023/04/13 09:40:17;;;;;;;11.60;2.90;;;;;;;10.11;80.31;100156.41;5052051;28;20094;-74
2023/04/13 09:42:54;;;;;;;12.38;2.55;;;;;;;10.09;79.40;100158.28;5051978;28;20056;-73
2023/04/13 09:45:20;;;;;;;11.70;2.63;;;;;;;10.12;77.46;100164.97;5050416;28;20025;-74
2023/04/13 09:47:47;;;;;;;10.02;2.40;;;;;;;10.27;77.07;100159.56;5049883;28;20051;-75
2023/04/13 09:50:32;;;;;;;7.47;1.88;;;;;;;10.63;78.41;100171.56;5052729;28;20086;-74
2023/04/13 09:53:05;;;;;;;12.10;2.40;;;;;;;10.49;77.52;100117.53;5051779;28;20021;-74
2023/04/13 09:55:32;;;;;;;10.52;2.40;;;;;;;10.85;76.57;100178.53;5051835;28;20108;-76
2023/04/13 09:58:09;;;;;;;10.80;2.50;;;;;;;10.74;77.98;100186.25;5051667;28;20020;-76
2023/04/13 10:00:39;;;;;;;14.18;3.00;;;;;;;10.48;76.93;100193.31;5052014;28;20440;-75
2023/04/13 10:03:09;;;;;;;11.43;2.28;;;;;;;10.09;78.56;100191.00;5051742;28;20043;-75
2023/04/13 10:05:36;;;;;;;12.30;2.40;;;;;;;9.61;79.15;100184.00;5009118;28;1082835;-72
2023/04/13 10:08:02;;;;;;;12.50;2.63;;;;;;;9.48;82.25;100211.56;5053034;28;20116;-74
2023/04/13 10:10:28;;;;;;;10.63;2.15;;;;;;;9.32;85.77;100195.47;5052365;28;20448;-73
2023/04/13 10:12:57;;;;;;;10.95;2.88;;;;;;;9.33;83.43;100200.53;5052119;28;20385;-74
2023/04/13 10:15:34;;;;;;;10.60;1.85;;;;;;;9.67;84.09;100226.59;5055978;28;20028;-75
2023/04/13 10:18:32;;;;;;;12.73;2.83;;;;;;;10.00;81.94;100236.31;5059029;28;20048;-72
2023/04/13 10:20:58;;;;;;;9.25;2.35;;;;;;;10.03;78.40;100220.66;5058779;28;20053;-74
2023/04/13 10:23:27;;;;;;;10.60;2.20;;;;;;;10.09;76.71;100220.19;5058180;28;20029;-74
2023/04/13 10:25:53;;;;;;;12.02;2.28;;;;;;;10.46;77.45;100248.59;5058767;28;20533;-75
2023/04/13 10:28:20;;;;;;;7.97;2.05;;;;;;;10.83;77.51;100250.16;5058536;28;20028;-74
2023/04/13 10:30:49;;;;;;;13.57;2.10;;;;;;;10.99;76.27;100231.75;5056027;28;20028;-80
2023/04/13 10:33:15;;;;;;;10.82;2.78;;;;;;;11.01;73.86;100229.91;5059510;28;20037;-78
2023/04/13 10:35:40;;;;;;;10.60;2.40;;;;;;;10.98;72.03;100240.44;5059180;28;20032;-79
2023/04/13 10:38:07;;;;;;;9.50;2.38;;;;;;;11.02;74.86;100259.16;5058529;28;20036;-77
2023/04/13 10:40:46;;;;;;;8.18;2.45;;;;;;;11.03;75.37;100268.53;5058456;28;20034;-79
2023/04/13 10:43:22;;;;;;;11.70;3.28;;;;;;;10.71;74.98;100252.78;5058745;28;20067;-81
2023/04/13 10:45:48;;;;;;;14.98;3.13;;;;;;;10.58;74.77;100271.75;5057208;28;20068;-78
2023/04/13 10:48:20;;;;;;;11.48;2.72;;;;;;;10.52;76.75;100286.84;5058856;28;20410;-79
2023/04/13 10:50:56;;;;;;;10.95;2.25;;;;;;;10.41;75.67;100285.03;5058502;28;20025;-81
2023/04/13 10:53:27;;;;;;;12.27;3.15;;;;;;;10.42;77.45;100288.44;5058719;28;20032;-80
2023/04/13 10:55:52;;;;;;;10.88;2.60;;;;;;;10.58;77.09;100289.84;5073597;28;20563;-83
2023/04/13 10:58:17;;;;;;;12.13;2.80;;;;;;;10.56;74.78;100273.63;5058909;28;20029;-79
2023/04/13 11:00:45;;;;;;;13.20;2.28;;;;;;;10.54;75.63;100282.44;5051497;28;20022;-82
2023/04/13 11:03:10;;;;;;;9.88;2.53;;;;;;;10.50;75.14;100281.81;5059241;28;20055;-80
2023/04/13 11:05:37;;;;;;;9.60;2.47;;;;;;;10.74;74.43;100314.56;5058754;28;20092;-78
2023/04/13 11:08:03;;;;;;;10.82;2.15;;;;;;;10.81;71.85;100319.16;5058459;28;20033;-82
2023/04/13 11:10:28;;;;;;;10.63;2.03;;;;;;;10.72;70.16;100314.69;5058408;28;20032;-80
2023/04/13 11:12:55;;;;;;;10.98;1.98;;;;;;;10.77;69.80;100319.50;5058220;28;20538;-79
2023/04/13 11:15:23;;;;;;;7.72;1.77;;;;;;;10.47;70.62;100282.03;5058376;28;20036;-79
2023/04/13 11:17:56;;;;;;;8.82;1.90;;;;;;;10.83;71.49;100322.47;5058324;28;20104;-79
2023/04/13 11:20:39;;;;;;;10.20;2.50;;;;;;;11.10;69.47;100323.97;5059218;28;20064;-78
2023/04/13 11:23:17;;;;;;;9.98;1.83;;;;;;;11.20;68.81;100336.09;5058152;28;20017;-79
2023/04/13 11:26:09;;;;;;;12.48;2.88;;;;;;;11.37;70.87;100326.28;5057301;28;20179;-80
2023/04/13 11:28:45;;;;;;;12.30;2.25;;;;;;;11.59;69.98;100326.34;5052633;28;20041;-77
2023/04/13 11:31:11;;;;;;;9.40;2.28;;;;;;;11.71;68.57;100306.50;5055377;28;20048;-80
2023/04/13 11:33:38;;;;;;;11.00;2.45;;;;;;;11.93;68.33;100321.25;5055223;28;20059;-80
2023/04/13 11:36:04;;;;;;;8.63;1.80;;;;;;;12.29;69.42;100322.72;5055052;28;20036;-76
2023/04/13 11:38:31;;;;;;;11.90;2.20;;;;;;;12.40;68.21;100317.56;5054761;28;20071;-76
2023/04/13 11:41:01;;;;;;;9.25;2.08;;;;;;;12.60;70.58;100326.34;5054966;28;20029;-81
2023/04/13 11:43:26;;;;;;;9.65;2.10;;;;;;;12.51;64.45;100307.16;5054972;28;20037;-78
2023/04/13 11:45:52;;;;;;;10.32;1.98;;;;;;;12.56;64.55;100322.34;5054928;28;20363;-85
2023/04/13 11:48:18;;;;;;;8.95;1.67;;;;;;;12.22;64.71;100293.94;5054862;28;20426;-84